Farmingdale, Illinois
Current Conditions -  °F | °C
As of 5:52 PM on Sunday 25 Jan 2015 (Local Time) from KSPI Reporting Station
Overcast Overcast  
Wind Chill: 19°   Ceiling: 1200
Heat Index: 32°   Visibility: 10mi
Dew Point: 28°   Wind: 24mph
Humidity: 85%   Direction: 10°N
Pressure: 29.87"   Gusts: 31mph
Location:  39.8458°N, 89.8743°W
Report Text: KSPI 252352Z 01021G27KT 10SM OVC012 00/M02 A2987 RMK AO2 PK WND 01027/2350 RAE16 SLP121 P0000 60000 T00001022 10039 20000 53054
Loading
Personal Weather Stations






























Interactive Weather Map New forecast layout! Learn more

10-Day Weather Forecast

Advertisements
Track Severe Weather on mobile